Time;durP1;ratioP1;P1;durP2;ratioP2;P2;SDS_P1;SDS_P2;PMS_P1;PMS_P2;Temp;Humidity;BMP_temperature;BMP_pressure;BME280_temperature;BME280_humidity;BME280_pressure;Samples;Min_cycle;Max_cycle;Signal;HPM_P1;HPM_P2
2020/12/27 00:00:50;;;;;;;21.15;12.80;;;0.40;90.60;;;;;;2063509;28;20468;-68
2020/12/27 00:01:50;;;;;;;19.55;12.57;;;0.40;90.60;;;;;;2064077;28;20061;-68
2020/12/27 00:02:51;;;;;;;23.50;13.05;;;0.40;90.60;;;;;;2063566;28;20109;-67
2020/12/27 00:03:52;;;;;;;20.35;12.98;;;0.50;90.60;;;;;;2064180;28;20038;-67
2020/12/27 00:04:52;;;;;;;22.77;13.27;;;0.50;90.50;;;;;;2063949;28;20030;-67
2020/12/27 00:05:53;;;;;;;23.52;12.93;;;0.50;90.40;;;;;;2064151;28;20041;-68
2020/12/27 00:06:54;;;;;;;19.65;12.80;;;0.50;90.30;;;;;;2063713;28;20057;-67
2020/12/27 00:07:54;;;;;;;22.17;13.07;;;0.60;90.20;;;;;;2063414;28;20548;-68
2020/12/27 00:08:55;;;;;;;18.98;12.07;;;0.60;90.10;;;;;;2063902;28;20472;-67
2020/12/27 00:09:56;;;;;;;22.38;12.63;;;0.60;90.00;;;;;;2063893;28;20045;-67
2020/12/27 00:10:56;;;;;;;21.90;12.80;;;0.60;90.00;;;;;;2064047;28;20073;-67
2020/12/27 00:11:57;;;;;;;19.58;12.57;;;0.60;89.80;;;;;;2064037;28;20125;-67
2020/12/27 00:12:57;;;;;;;19.50;12.63;;;0.60;89.70;;;;;;2064097;28;20468;-67
2020/12/27 00:13:58;;;;;;;21.90;13.10;;;0.60;89.70;;;;;;2064107;28;20113;-68
2020/12/27 00:14:59;;;;;;;21.60;12.95;;;0.60;89.60;;;;;;2064113;28;20025;-68
2020/12/27 00:16:00;;;;;;;21.63;12.90;;;0.60;89.50;;;;;;2063749;28;20115;-67
2020/12/27 00:17:05;;;;;;;20.30;12.20;;;0.70;89.50;;;;;;2063969;28;20018;-66
2020/12/27 00:18:06;;;;;;;19.95;12.45;;;0.70;89.30;;;;;;2063251;28;20109;-66
2020/12/27 00:19:07;;;;;;;19.30;12.05;;;0.70;89.20;;;;;;2055042;28;20031;-66
2020/12/27 00:20:07;;;;;;;21.00;13.13;;;0.80;89.00;;;;;;2055535;28;20031;-66
2020/12/27 00:21:14;;;;;;;21.08;12.30;;;0.70;88.80;;;;;;2056046;28;20066;-66
2020/12/27 00:22:16;;;;;;;19.50;12.10;;;0.80;88.70;;;;;;2055923;28;20079;-66
2020/12/27 00:23:17;;;;;;;21.85;12.82;;;0.80;88.70;;;;;;2056067;28;20038;-66
2020/12/27 00:24:17;;;;;;;19.88;12.63;;;0.80;88.50;;;;;;2055490;28;20130;-66
2020/12/27 00:25:18;;;;;;;19.50;12.05;;;0.70;88.20;;;;;;2056403;28;20022;-66
2020/12/27 00:26:19;;;;;;;20.15;12.18;;;0.70;88.10;;;;;;2055833;28;20030;-66
2020/12/27 00:27:19;;;;;;;20.10;12.23;;;0.70;88.30;;;;;;2055637;28;20386;-67
2020/12/27 00:28:20;;;;;;;19.73;12.55;;;0.70;88.30;;;;;;2055056;28;20093;-67
2020/12/27 00:29:21;;;;;;;19.23;11.93;;;0.70;88.30;;;;;;2063248;28;20125;-66
2020/12/27 00:30:21;;;;;;;20.25;12.65;;;0.80;88.30;;;;;;2063710;28;20062;-67
2020/12/27 00:31:22;;;;;;;19.55;12.32;;;0.70;88.30;;;;;;2064027;28;20084;-68
2020/12/27 00:32:27;;;;;;;20.92;12.52;;;0.70;88.40;;;;;;2056540;28;20030;-68
2020/12/27 00:33:28;;;;;;;20.30;12.25;;;0.70;88.60;;;;;;2063845;28;20117;-70
2020/12/27 00:34:29;;;;;;;21.77;12.40;;;0.70;88.60;;;;;;2063445;28;20033;-69
2020/12/27 00:35:29;;;;;;;21.00;12.77;;;0.70;88.70;;;;;;2056127;28;20113;-69
2020/12/27 00:36:30;;;;;;;20.92;12.50;;;0.70;88.80;;;;;;2055579;28;20387;-69
2020/12/27 00:37:32;;;;;;;20.58;12.20;;;0.70;88.70;;;;;;2060400;28;20026;-69
2020/12/27 00:38:33;;;;;;;19.30;11.75;;;0.70;88.60;;;;;;2065448;28;20030;-69
2020/12/27 00:39:33;;;;;;;19.02;12.02;;;0.70;88.50;;;;;;2065754;28;20022;-69
2020/12/27 00:40:34;;;;;;;20.33;12.45;;;0.70;88.50;;;;;;2065915;28;20050;-70
2020/12/27 00:41:35;;;;;;;19.10;12.13;;;0.70;88.40;;;;;;2065851;28;20076;-68
2020/12/27 00:42:36;;;;;;;20.70;12.23;;;0.70;88.60;;;;;;2065792;28;20030;-69
2020/12/27 00:43:36;;;;;;;21.55;12.52;;;0.70;88.70;;;;;;2065585;28;20026;-69
2020/12/27 00:44:37;;;;;;;17.70;11.55;;;0.60;88.70;;;;;;2064753;28;20034;-69
2020/12/27 00:45:38;;;;;;;18.73;12.15;;;0.70;89.00;;;;;;2065078;28;20085;-69
2020/12/27 00:46:38;;;;;;;21.60;13.02;;;0.60;89.10;;;;;;2065401;28;20036;-69
2020/12/27 00:47:39;;;;;;;20.35;12.70;;;0.60;89.20;;;;;;2065116;28;20030;-69
2020/12/27 00:48:40;;;;;;;22.02;12.85;;;0.60;89.20;;;;;;2064978;28;20390;-69
2020/12/27 00:49:41;;;;;;;20.25;12.32;;;0.60;89.30;;;;;;2056526;28;20039;-69
2020/12/27 00:50:41;;;;;;;21.20;12.40;;;0.60;89.30;;;;;;2056577;28;20776;-69
2020/12/27 00:51:42;;;;;;;21.17;12.52;;;0.50;89.40;;;;;;2056765;28;20093;-69
2020/12/27 00:52:45;;;;;;;21.33;11.57;;;0.50;89.60;;;;;;2064981;28;20030;-69
2020/12/27 00:53:45;;;;;;;17.95;11.63;;;0.50;89.50;;;;;;2065718;28;20019;-69
2020/12/27 00:54:46;;;;;;;20.13;12.07;;;0.50;89.60;;;;;;2065312;28;20461;-69
2020/12/27 00:55:47;;;;;;;19.52;12.15;;;0.40;89.50;;;;;;2065471;28;20026;-69
2020/12/27 00:56:51;;;;;;;20.17;12.20;;;0.40;89.70;;;;;;2064576;28;20410;-69
2020/12/27 00:57:53;;;;;;;17.73;11.55;;;0.40;89.70;;;;;;2056673;28;20026;-69
2020/12/27 00:58:54;;;;;;;19.42;12.38;;;0.40;89.70;;;;;;2056819;28;20494;-70
2020/12/27 00:59:54;;;;;;;19.35;11.80;;;0.40;89.70;;;;;;2064814;28;20022;-68
2020/12/27 01:00:59;;;;;;;20.33;13.02;;;0.40;89.70;;;;;;2064570;28;20026;-68
2020/12/27 01:02:00;;;;;;;18.73;11.52;;;0.40;89.70;;;;;;2064850;28;20433;-69
2020/12/27 01:03:36;;;;;;;19.02;12.02;;;0.30;89.70;;;;;;2036751;29;20062;-68
2020/12/27 01:04:50;;;;;;;18.58;11.15;;;0.30;89.80;;;;;;2039472;29;20070;-68
2020/12/27 01:05:58;;;;;;;19.70;11.98;;;0.30;89.80;;;;;;2046892;28;20077;-67
2020/12/27 01:06:59;;;;;;;20.00;12.68;;;0.30;89.90;;;;;;2055756;28;20030;-68
2020/12/27 01:08:00;;;;;;;19.95;11.85;;;0.30;89.90;;;;;;2056187;28;20097;-68
2020/12/27 01:09:01;;;;;;;19.13;11.82;;;0.30;90.00;;;;;;2056061;28;20133;-67
2020/12/27 01:10:03;;;;;;;19.27;12.23;;;0.30;90.00;;;;;;2056356;28;20041;-67
2020/12/27 01:11:06;;;;;;;20.77;12.77;;;0.30;90.10;;;;;;2048662;29;20122;-67
2020/12/27 01:12:08;;;;;;;19.10;12.35;;;0.30;90.10;;;;;;2048842;28;20399;-67
2020/12/27 01:13:09;;;;;;;19.23;12.07;;;0.30;90.00;;;;;;2056558;28;20493;-67
2020/12/27 01:14:09;;;;;;;21.52;13.02;;;0.30;90.10;;;;;;2048235;28;20055;-67
2020/12/27 01:15:11;;;;;;;18.15;11.90;;;0.30;90.10;;;;;;2056050;28;20022;-67
2020/12/27 01:16:49;;;;;;;20.13;11.90;;;0.30;89.90;;;;;;2050162;28;20023;-67
2020/12/27 01:17:52;;;;;;;20.23;12.48;;;0.30;89.80;;;;;;2056297;28;20539;-66
2020/12/27 01:18:53;;;;;;;19.40;12.07;;;0.30;89.80;;;;;;2058502;28;20027;-67
2020/12/27 01:20:01;;;;;;;21.40;12.32;;;0.30;89.90;;;;;;2057060;28;20029;-66
2020/12/27 01:21:02;;;;;;;21.02;12.40;;;0.30;89.80;;;;;;2056568;28;20093;-66
2020/12/27 01:22:03;;;;;;;20.88;12.90;;;0.30;90.00;;;;;;2048688;28;20090;-66
2020/12/27 01:23:24;;;;;;;24.55;13.00;;;0.30;90.00;;;;;;2059542;28;20539;-67
2020/12/27 01:24:25;;;;;;;20.27;12.77;;;0.30;90.00;;;;;;2064686;28;20109;-66
2020/12/27 01:25:26;;;;;;;18.25;12.13;;;0.30;89.90;;;;;;2056638;28;20039;-67
2020/12/27 01:26:34;;;;;;;18.52;12.15;;;0.30;90.00;;;;;;2064268;28;20031;-67
2020/12/27 01:27:36;;;;;;;22.00;13.45;;;0.30;89.90;;;;;;2064126;28;20080;-67
2020/12/27 01:28:39;;;;;;;19.48;12.43;;;0.30;90.10;;;;;;2056626;28;20119;-67
2020/12/27 01:29:42;;;;;;;20.02;12.48;;;0.20;90.10;;;;;;2057026;28;20031;-67
2020/12/27 01:30:57;;;;;;;20.23;12.32;;;0.20;90.20;;;;;;2058337;28;20402;-67
2020/12/27 01:32:07;;;;;;;20.48;12.25;;;0.20;90.10;;;;;;2057872;28;20438;-67
2020/12/27 01:33:19;;;;;;;21.52;12.38;;;0.20;90.20;;;;;;2049773;28;20405;-67
2020/12/27 01:34:29;;;;;;;20.42;12.52;;;0.20;90.30;;;;;;2057458;28;20030;-67
2020/12/27 01:35:31;;;;;;;19.80;12.60;;;0.20;90.20;;;;;;2056404;28;20030;-67
2020/12/27 01:36:35;;;;;;;19.17;12.85;;;0.20;90.20;;;;;;2055682;28;20145;-66
2020/12/27 01:37:40;;;;;;;19.85;12.93;;;0.20;90.30;;;;;;2056902;28;20026;-66
2020/12/27 01:38:42;;;;;;;22.00;13.30;;;0.20;90.30;;;;;;2056501;28;20042;-66
2020/12/27 01:39:42;;;;;;;20.92;13.02;;;0.20;90.40;;;;;;2056148;28;20401;-66
2020/12/27 01:40:43;;;;;;;22.48;13.60;;;0.20;90.50;;;;;;2064227;28;20034;-66
2020/12/27 01:41:46;;;;;;;20.40;12.98;;;0.20;90.50;;;;;;2064561;28;20018;-67
2020/12/27 01:42:58;;;;;;;21.30;12.68;;;0.10;90.50;;;;;;2057575;28;20587;-67
2020/12/27 01:44:03;;;;;;;20.05;13.10;;;0.10;90.50;;;;;;2064564;28;20382;-67
2020/12/27 01:45:05;;;;;;;22.40;13.55;;;0.10;90.50;;;;;;2064418;28;20054;-67
2020/12/27 01:46:24;;;;;;;21.48;12.90;;;0.10;90.60;;;;;;2066749;28;20035;-67
2020/12/27 01:47:32;;;;;;;21.67;13.13;;;0.10;90.70;;;;;;2063950;28;20037;-67
2020/12/27 01:48:33;;;;;;;19.92;12.52;;;0.10;90.70;;;;;;2064091;28;20540;-67
2020/12/27 01:49:37;;;;;;;19.75;12.77;;;0.10;90.70;;;;;;2056693;28;20034;-67
2020/12/27 01:50:38;;;;;;;22.27;13.68;;;0.10;90.70;;;;;;2064435;28;20027;-67
2020/12/27 01:51:40;;;;;;;22.55;13.95;;;0.10;90.80;;;;;;2064569;28;20034;-67
2020/12/27 01:52:40;;;;;;;19.30;12.80;;;0.10;90.70;;;;;;2064578;28;20216;-67
2020/12/27 01:53:49;;;;;;;20.63;12.75;;;0.10;90.70;;;;;;2057511;28;20034;-67
2020/12/27 01:55:14;;;;;;;20.48;12.93;;;0.10;90.70;;;;;;2049099;28;20026;-67
2020/12/27 01:56:29;;;;;;;18.45;12.80;;;0.10;90.80;;;;;;2068738;28;20481;-67
2020/12/27 01:57:52;;;;;;;20.00;13.10;;;0.10;90.80;;;;;;2064004;28;20038;-66
2020/12/27 01:58:58;;;;;;;20.10;13.00;;;0.10;90.80;;;;;;2059245;28;20027;-67
2020/12/27 01:59:59;;;;;;;20.70;12.15;;;0.00;90.80;;;;;;2064722;28;20066;-67
2020/12/27 02:01:14;;;;;;;18.23;12.20;;;0.10;90.80;;;;;;2065139;28;20058;-67
2020/12/27 02:02:19;;;;;;;19.83;12.75;;;0.00;90.80;;;;;;2064556;28;20088;-67
2020/12/27 02:03:31;;;;;;;18.73;12.73;;;0.10;90.80;;;;;;2057962;28;20406;-67
2020/12/27 02:04:41;;;;;;;18.40;12.60;;;0.10;90.80;;;;;;2057636;28;20798;-67
2020/12/27 02:05:43;;;;;;;22.35;14.00;;;0.10;90.80;;;;;;2056390;28;20034;-67
2020/12/27 02:06:44;;;;;;;22.50;13.95;;;0.10;90.90;;;;;;2064148;28;20034;-67
2020/12/27 02:07:59;;;;;;;22.27;14.00;;;0.00;90.80;;;;;;2064088;28;20030;-66
2020/12/27 02:09:13;;;;;;;22.33;13.80;;;0.00;90.80;;;;;;2058114;28;20027;-67
2020/12/27 02:10:22;;;;;;;22.80;13.63;;;0.10;90.80;;;;;;2065571;28;20406;-67
2020/12/27 02:11:25;;;;;;;24.58;13.88;;;0.10;90.80;;;;;;2064391;28;20041;-67
2020/12/27 02:12:26;;;;;;;20.67;13.25;;;0.10;90.80;;;;;;2064600;28;20505;-67
2020/12/27 02:13:27;;;;;;;19.77;12.88;;;0.10;90.90;;;;;;2065106;28;20026;-67
2020/12/27 02:14:28;;;;;;;18.52;13.00;;;0.10;90.90;;;;;;2064380;28;20047;-67
2020/12/27 02:15:29;;;;;;;21.83;12.93;;;0.10;90.90;;;;;;2056629;28;20031;-67
2020/12/27 02:16:48;;;;;;;19.13;12.55;;;0.10;90.80;;;;;;2064405;28;20026;-67
2020/12/27 02:18:15;;;;;;;20.08;12.75;;;0.10;90.80;;;;;;2061786;28;20027;-67
2020/12/27 02:19:17;;;;;;;20.10;12.93;;;0.10;90.80;;;;;;2064135;28;20720;-67
2020/12/27 02:20:22;;;;;;;19.63;12.68;;;0.10;90.80;;;;;;2056281;28;20117;-67
2020/12/27 02:21:33;;;;;;;19.33;12.80;;;0.10;90.80;;;;;;2057722;28;20122;-66
2020/12/27 02:22:34;;;;;;;19.33;13.10;;;0.10;90.70;;;;;;2064333;28;20022;-67
2020/12/27 02:23:58;;;;;;;22.05;13.55;;;0.10;90.70;;;;;;2057137;28;20047;-67
2020/12/27 02:25:00;;;;;;;20.45;13.27;;;0.10;90.70;;;;;;2064353;28;20022;-67
2020/12/27 02:26:03;;;;;;;18.92;12.70;;;0.10;90.70;;;;;;2055927;28;20027;-66
2020/12/27 02:27:09;;;;;;;19.80;12.80;;;0.10;90.70;;;;;;2048778;28;20059;-66
2020/12/27 02:28:10;;;;;;;19.08;13.38;;;0.10;90.70;;;;;;2055814;28;20410;-66
2020/12/27 02:29:11;;;;;;;20.73;12.85;;;0.10;90.80;;;;;;2064311;28;20088;-66
2020/12/27 02:30:12;;;;;;;20.23;13.60;;;0.10;90.90;;;;;;2056095;28;20034;-66
2020/12/27 02:31:13;;;;;;;18.83;12.68;;;0.10;90.90;;;;;;2056199;28;20030;-68
2020/12/27 02:32:40;;;;;;;19.50;11.90;;;0.00;90.90;;;;;;2056141;28;20054;-66
2020/12/27 02:33:42;;;;;;;20.20;12.95;;;0.00;90.90;;;;;;2056210;28;20042;-66
2020/12/27 02:34:46;;;;;;;20.13;13.05;;;0.00;90.80;;;;;;2064138;28;20500;-66
2020/12/27 02:35:48;;;;;;;19.83;13.02;;;0.00;90.80;;;;;;2056070;28;20564;-66
2020/12/27 02:36:55;;;;;;;17.27;11.85;;;0.00;90.90;;;;;;2055908;28;20023;-67
2020/12/27 02:38:03;;;;;;;19.83;12.65;;;0.00;90.90;;;;;;2055545;28;20530;-67
2020/12/27 02:39:10;;;;;;;19.65;12.85;;;0.00;90.90;;;;;;2048355;28;20475;-66
2020/12/27 02:40:12;;;;;;;19.85;12.70;;;0.00;91.00;;;;;;2040842;28;20036;-67
2020/12/27 02:41:31;;;;;;;21.75;13.50;;;0.00;90.90;;;;;;2051017;28;20035;-66
2020/12/27 02:42:47;;;;;;;21.42;13.35;;;0.00;91.00;;;;;;2056014;28;20070;-67
2020/12/27 02:43:48;;;;;;;24.77;13.55;;;0.00;90.90;;;;;;2048300;29;20087;-67
2020/12/27 02:45:10;;;;;;;21.55;12.98;;;0.00;91.00;;;;;;2055991;28;20042;-67
2020/12/27 02:46:35;;;;;;;21.73;13.70;;;0.00;91.00;;;;;;2056212;28;20026;-66
2020/12/27 02:47:54;;;;;;;23.15;13.93;;;0.00;91.00;;;;;;2056480;28;20109;-67
2020/12/27 02:49:13;;;;;;;23.38;13.45;;;0.00;91.00;;;;;;2056260;28;20108;-67
2020/12/27 02:50:15;;;;;;;23.95;14.68;;;0.00;90.90;;;;;;2056256;28;20590;-67
2020/12/27 02:51:16;;;;;;;22.02;13.48;;;0.00;90.90;;;;;;2056082;28;20031;-66
2020/12/27 02:52:17;;;;;;;22.33;13.15;;;0.00;90.80;;;;;;2048086;28;20083;-67
2020/12/27 02:53:18;;;;;;;24.50;14.73;;;0.00;90.80;;;;;;2040082;29;20030;-67
2020/12/27 02:54:18;;;;;;;22.48;14.45;;;0.00;90.80;;;;;;2048078;29;20023;-67
2020/12/27 02:55:20;;;;;;;20.42;13.88;;;0.00;90.90;;;;;;2055961;28;20046;-67
2020/12/27 02:56:26;;;;;;;20.65;13.60;;;0.00;90.90;;;;;;2048393;28;20034;-66
2020/12/27 02:57:27;;;;;;;21.45;13.80;;;0.00;90.80;;;;;;2047911;28;20059;-67
2020/12/27 02:58:27;;;;;;;24.65;14.40;;;0.10;90.80;;;;;;2048200;28;20071;-67
2020/12/27 02:59:31;;;;;;;21.60;13.77;;;0.10;90.70;;;;;;2056453;28;20525;-66
2020/12/27 03:00:40;;;;;;;23.10;14.50;;;0.10;90.70;;;;;;2055300;28;20078;-67
2020/12/27 03:01:59;;;;;;;22.88;13.85;;;0.10;90.70;;;;;;2058529;28;20026;-67
2020/12/27 03:03:23;;;;;;;22.58;13.85;;;0.00;90.70;;;;;;2039927;29;20035;-67
2020/12/27 03:04:30;;;;;;;22.17;13.63;;;0.00;90.70;;;;;;2063872;28;20026;-67
2020/12/27 03:05:37;;;;;;;22.40;13.98;;;0.00;90.70;;;;;;2064959;28;20033;-67
2020/12/27 03:06:37;;;;;;;22.52;13.85;;;0.00;90.70;;;;;;2063500;28;20733;-67
2020/12/27 03:07:48;;;;;;;21.65;13.20;;;0.00;90.80;;;;;;2064645;28;20438;-67
2020/12/27 03:08:57;;;;;;;20.42;12.73;;;0.00;90.80;;;;;;2063869;28;20046;-67
2020/12/27 03:10:11;;;;;;;23.02;13.90;;;0.00;90.80;;;;;;2065912;28;20536;-67
2020/12/27 03:11:24;;;;;;;23.15;13.75;;;-0.10;90.90;;;;;;2063980;28;20030;-67
2020/12/27 03:12:25;;;;;;;22.15;13.70;;;-0.10;90.90;;;;;;2057438;28;20026;-67
2020/12/27 03:13:27;;;;;;;24.33;14.05;;;-0.10;90.90;;;;;;2063971;28;20027;-67
2020/12/27 03:14:28;;;;;;;23.27;13.80;;;-0.10;91.00;;;;;;2063784;28;20585;-67
2020/12/27 03:15:55;;;;;;;23.42;13.52;;;-0.10;91.00;;;;;;2064192;28;20027;-67
2020/12/27 03:17:01;;;;;;;20.35;13.05;;;-0.10;91.00;;;;;;2064542;28;20027;-67
2020/12/27 03:18:30;;;;;;;20.85;12.10;;;-0.10;91.00;;;;;;2063861;28;20026;-67
2020/12/27 03:20:00;;;;;;;20.42;12.30;;;-0.20;90.90;;;;;;2048691;28;20038;-66
2020/12/27 03:21:08;;;;;;;20.08;12.20;;;-0.20;90.90;;;;;;2064567;28;20115;-66
2020/12/27 03:22:09;;;;;;;19.85;12.52;;;-0.10;90.90;;;;;;2064011;28;20084;-66
2020/12/27 03:23:24;;;;;;;20.52;12.70;;;-0.20;90.90;;;;;;2057946;28;20034;-66
2020/12/27 03:24:30;;;;;;;21.55;12.90;;;-0.20;90.80;;;;;;2056670;28;20050;-66
2020/12/27 03:25:31;;;;;;;18.63;12.25;;;-0.10;90.80;;;;;;2055987;28;20035;-67
2020/12/27 03:26:33;;;;;;;17.98;11.48;;;-0.20;90.80;;;;;;2063503;28;20029;-67
2020/12/27 03:27:34;;;;;;;20.95;12.27;;;-0.10;90.70;;;;;;2055503;28;20553;-66
2020/12/27 03:28:35;;;;;;;20.85;12.35;;;-0.10;90.70;;;;;;2063901;28;20030;-66
2020/12/27 03:29:39;;;;;;;20.45;12.25;;;-0.10;90.70;;;;;;2063795;28;20567;-66
2020/12/27 03:30:40;;;;;;;18.83;11.77;;;-0.20;90.60;;;;;;2055586;28;20049;-66
2020/12/27 03:31:48;;;;;;;18.50;11.43;;;-0.20;90.60;;;;;;2064766;28;20026;-66
2020/12/27 03:32:52;;;;;;;20.25;11.57;;;-0.10;90.50;;;;;;2063705;28;20022;-66
2020/12/27 03:33:52;;;;;;;19.45;11.15;;;-0.20;90.50;;;;;;2055681;28;20038;-66
2020/12/27 03:34:53;;;;;;;18.40;11.05;;;-0.10;90.50;;;;;;2055651;28;20038;-66
2020/12/27 03:35:54;;;;;;;19.33;11.60;;;-0.20;90.40;;;;;;2063731;28;20034;-67
2020/12/27 03:36:55;;;;;;;16.70;10.32;;;-0.20;90.40;;;;;;2071484;28;20429;-67
2020/12/27 03:38:19;;;;;;;16.48;10.27;;;-0.20;90.30;;;;;;2068365;28;20046;-67
2020/12/27 03:39:39;;;;;;;18.05;10.45;;;-0.20;90.20;;;;;;2063938;28;20126;-67
2020/12/27 03:40:57;;;;;;;17.95;10.30;;;-0.20;90.10;;;;;;2063784;28;20019;-68
2020/12/27 03:42:23;;;;;;;17.17;10.38;;;-0.20;90.10;;;;;;2063685;28;20064;-67
2020/12/27 03:43:30;;;;;;;18.15;10.18;;;-0.20;89.90;;;;;;2063845;28;20034;-67
2020/12/27 03:44:31;;;;;;;17.23;10.05;;;-0.20;89.50;;;;;;2055680;28;20037;-67
2020/12/27 03:45:51;;;;;;;19.42;9.95;;;-0.10;89.10;;;;;;2064011;28;20117;-67
2020/12/27 03:47:04;;;;;;;16.55;9.23;;;-0.10;88.40;;;;;;2063638;28;20078;-66
2020/12/27 03:48:28;;;;;;;15.80;9.05;;;-0.10;87.90;;;;;;2058540;28;20047;-67
2020/12/27 03:49:46;;;;;;;16.85;9.15;;;-0.10;87.60;;;;;;2063615;28;20041;-67
2020/12/27 03:50:53;;;;;;;18.05;9.13;;;-0.10;87.70;;;;;;2056121;28;20402;-67
2020/12/27 03:51:55;;;;;;;16.00;9.55;;;-0.10;87.60;;;;;;2055697;28;20050;-66
2020/12/27 03:53:13;;;;;;;17.70;9.52;;;-0.10;87.80;;;;;;2057762;28;20026;-67
2020/12/27 03:54:31;;;;;;;18.00;9.73;;;-0.10;87.60;;;;;;2057712;28;20035;-67
2020/12/27 03:55:51;;;;;;;17.65;9.70;;;-0.10;87.80;;;;;;2058110;28;20114;-67
2020/12/27 03:57:15;;;;;;;16.65;9.50;;;-0.10;87.60;;;;;;2055901;28;20052;-67
2020/12/27 03:58:36;;;;;;;14.13;8.77;;;-0.10;87.60;;;;;;2063720;28;20117;-67
2020/12/27 03:59:43;;;;;;;16.13;9.05;;;-0.10;87.70;;;;;;2063741;28;20030;-67
2020/12/27 04:01:04;;;;;;;15.38;9.40;;;-0.10;87.70;;;;;;2064208;28;20482;-67
2020/12/27 04:02:09;;;;;;;18.33;9.73;;;-0.10;88.20;;;;;;2063531;28;20030;-67
2020/12/27 04:03:09;;;;;;;17.42;9.60;;;-0.20;88.40;;;;;;2063495;28;20103;-67
2020/12/27 04:04:13;;;;;;;18.15;10.27;;;-0.20;88.60;;;;;;2056385;28;20502;-67
2020/12/27 04:05:14;;;;;;;15.43;9.50;;;-0.20;88.60;;;;;;2055527;28;20066;-67
2020/12/27 04:06:15;;;;;;;16.77;9.88;;;-0.30;88.50;;;;;;2055105;28;20037;-67
2020/12/27 04:07:19;;;;;;;17.38;10.07;;;-0.30;89.40;;;;;;2047940;28;20399;-67
2020/12/27 04:08:23;;;;;;;17.17;10.20;;;-0.30;88.80;;;;;;2047907;28;20039;-67
2020/12/27 04:09:25;;;;;;;15.25;9.25;;;-0.30;89.50;;;;;;2055391;28;20026;-67
2020/12/27 04:10:26;;;;;;;16.52;9.65;;;-0.30;89.50;;;;;;2055496;28;20034;-67
2020/12/27 04:11:28;;;;;;;15.73;9.65;;;-0.30;88.70;;;;;;2063383;28;20526;-67
2020/12/27 04:12:29;;;;;;;16.83;9.77;;;-0.30;88.60;;;;;;2055193;28;20033;-67
2020/12/27 04:13:29;;;;;;;16.23;9.70;;;-0.30;88.50;;;;;;2055581;28;20553;-67
2020/12/27 04:14:40;;;;;;;16.00;9.68;;;-0.30;88.30;;;;;;2055331;28;20041;-67
2020/12/27 04:15:41;;;;;;;16.70;9.88;;;-0.30;88.00;;;;;;2055378;28;20637;-67
2020/12/27 04:16:49;;;;;;;16.55;9.63;;;-0.30;88.00;;;;;;2055025;28;20035;-67
2020/12/27 04:17:52;;;;;;;17.35;10.00;;;-0.30;88.00;;;;;;2055166;28;20121;-67
2020/12/27 04:18:57;;;;;;;15.15;9.13;;;-0.30;88.20;;;;;;2057912;28;20537;-67
2020/12/27 04:20:07;;;;;;;18.73;9.80;;;-0.30;88.10;;;;;;2063546;28;20037;-67
2020/12/27 04:21:12;;;;;;;15.55;9.27;;;-0.30;88.00;;;;;;2063389;28;20038;-67
2020/12/27 04:22:12;;;;;;;16.67;9.15;;;-0.30;87.90;;;;;;2063404;28;20034;-67
2020/12/27 04:23:25;;;;;;;16.45;9.75;;;-0.30;87.80;;;;;;2056938;28;20031;-67
2020/12/27 04:24:25;;;;;;;14.82;9.30;;;-0.20;87.80;;;;;;2055401;28;20045;-67
2020/12/27 04:25:26;;;;;;;14.90;8.75;;;-0.30;87.80;;;;;;2063404;28;20030;-67
2020/12/27 04:26:27;;;;;;;15.63;9.27;;;-0.30;87.90;;;;;;2063114;28;20041;-67
2020/12/27 04:27:33;;;;;;;16.80;9.63;;;-0.30;87.90;;;;;;2063811;28;20698;-67
2020/12/27 04:28:34;;;;;;;17.85;9.68;;;-0.20;87.50;;;;;;2063469;28;20037;-67
2020/12/27 04:29:35;;;;;;;14.65;9.02;;;-0.30;87.20;;;;;;2055422;28;20027;-67
2020/12/27 04:30:36;;;;;;;15.98;9.10;;;-0.30;87.10;;;;;;2063375;28;20037;-67
2020/12/27 04:31:55;;;;;;;14.63;8.80;;;-0.30;87.00;;;;;;2063540;28;20116;-67
2020/12/27 04:33:25;;;;;;;12.68;8.25;;;-0.30;87.10;;;;;;2059346;28;20588;-66
2020/12/27 04:34:42;;;;;;;15.27;8.80;;;-0.30;87.10;;;;;;2063374;28;20615;-67
2020/12/27 04:35:43;;;;;;;14.45;8.73;;;-0.30;87.10;;;;;;2063348;28;20054;-66
2020/12/27 04:36:44;;;;;;;13.75;8.60;;;-0.30;87.00;;;;;;2062913;28;20027;-67
2020/12/27 04:37:50;;;;;;;15.00;8.57;;;-0.30;87.10;;;;;;2063025;28;20497;-67
2020/12/27 04:38:59;;;;;;;14.30;8.73;;;-0.30;87.20;;;;;;2063361;28;20022;-67
2020/12/27 04:40:02;;;;;;;14.27;9.07;;;-0.30;87.40;;;;;;2055749;28;20031;-67
2020/12/27 04:41:04;;;;;;;16.60;8.90;;;-0.30;87.30;;;;;;2063608;28;20041;-67
2020/12/27 04:42:08;;;;;;;13.95;8.63;;;-0.30;87.30;;;;;;2063424;28;20049;-67
2020/12/27 04:43:24;;;;;;;14.52;9.23;;;-0.30;87.10;;;;;;2063318;28;20030;-67
2020/12/27 04:44:27;;;;;;;13.77;8.18;;;-0.30;87.10;;;;;;2055734;28;20037;-67
2020/12/27 04:45:32;;;;;;;13.50;8.60;;;-0.30;87.20;;;;;;2055972;28;20035;-67
2020/12/27 04:46:43;;;;;;;16.23;9.18;;;-0.30;87.40;;;;;;2056529;28;20050;-67
2020/12/27 04:47:56;;;;;;;15.15;8.80;;;-0.30;87.20;;;;;;2064511;28;20613;-67
2020/12/27 04:49:20;;;;;;;18.63;9.20;;;-0.30;87.50;;;;;;2068386;28;20046;-67
2020/12/27 04:50:29;;;;;;;14.95;9.07;;;-0.30;86.80;;;;;;2063534;28;20050;-67
2020/12/27 04:51:32;;;;;;;15.25;9.27;;;-0.30;86.70;;;;;;2063282;28;20547;-67
2020/12/27 04:52:59;;;;;;;15.70;8.93;;;-0.30;86.40;;;;;;2036608;28;20032;-67
2020/12/27 04:54:04;;;;;;;14.77;9.13;;;-0.30;86.20;;;;;;2063456;28;20027;-67
2020/12/27 04:55:18;;;;;;;12.98;8.40;;;-0.30;85.90;;;;;;2057123;28;20047;-67
2020/12/27 04:56:35;;;;;;;13.32;8.63;;;-0.30;85.80;;;;;;2063095;28;20037;-67
2020/12/27 04:57:50;;;;;;;15.68;8.95;;;-0.30;85.70;;;;;;2056549;28;20030;-67
2020/12/27 04:58:55;;;;;;;14.98;8.57;;;-0.30;85.60;;;;;;2056207;28;20037;-67
2020/12/27 05:00:04;;;;;;;14.52;8.75;;;-0.30;85.50;;;;;;2056143;28;20076;-67
2020/12/27 05:01:25;;;;;;;14.73;8.60;;;-0.30;85.50;;;;;;2063546;28;20540;-67
2020/12/27 05:02:45;;;;;;;;;;;-0.30;85.50;;;;;;2063876;28;20117;-67
2020/12/27 05:03:47;;;;;;;14.13;8.00;;;-0.20;85.30;;;;;;2051828;28;20322;-67
2020/12/27 05:04:47;;;;;;;13.02;8.45;;;-0.30;85.20;;;;;;2039468;29;20027;-67
2020/12/27 05:05:56;;;;;;;13.63;8.35;;;-0.20;85.00;;;;;;2049534;28;20034;-66
2020/12/27 05:06:58;;;;;;;14.15;8.25;;;-0.20;85.00;;;;;;2063052;28;20132;-67
2020/12/27 05:08:10;;;;;;;15.25;8.60;;;-0.20;84.70;;;;;;2054939;28;20027;-67
2020/12/27 05:09:26;;;;;;;14.00;7.97;;;-0.20;84.50;;;;;;2055266;28;20050;-66
2020/12/27 05:10:27;;;;;;;13.23;8.10;;;-0.20;84.30;;;;;;2055246;28;20027;-67
2020/12/27 05:11:34;;;;;;;12.40;7.57;;;-0.20;84.10;;;;;;2048021;28;20499;-67
2020/12/27 05:12:43;;;;;;;15.02;8.00;;;-0.20;84.00;;;;;;2048521;28;20048;-67
2020/12/27 05:13:45;;;;;;;13.43;7.75;;;-0.20;84.00;;;;;;2047572;28;20028;-66
2020/12/27 05:14:55;;;;;;;14.02;7.90;;;-0.20;83.70;;;;;;2056453;28;20109;-67
2020/12/27 05:16:04;;;;;;;13.68;7.78;;;-0.20;83.50;;;;;;2054960;28;20838;-67
2020/12/27 05:17:05;;;;;;;13.35;7.90;;;-0.20;83.40;;;;;;2055203;28;20055;-66
2020/12/27 05:18:22;;;;;;;13.00;7.53;;;-0.10;83.30;;;;;;2054929;28;20037;-67
2020/12/27 05:19:25;;;;;;;12.25;8.00;;;-0.20;83.20;;;;;;2061304;28;20065;-67
2020/12/27 05:20:26;;;;;;;15.75;8.18;;;-0.10;83.40;;;;;;2055325;28;20030;-67
2020/12/27 05:21:37;;;;;;;11.38;7.68;;;-0.10;83.30;;;;;;2055564;28;20030;-67
2020/12/27 05:22:39;;;;;;;13.25;8.25;;;-0.10;83.30;;;;;;2056245;28;20101;-67
2020/12/27 05:23:56;;;;;;;16.35;8.48;;;-0.10;83.30;;;;;;2065291;28;20045;-66
2020/12/27 05:25:07;;;;;;;11.65;7.70;;;-0.10;83.20;;;;;;2064734;28;20030;-67
2020/12/27 05:26:29;;;;;;;12.68;7.72;;;-0.10;83.40;;;;;;2058381;28;20034;-67
2020/12/27 05:27:48;;;;;;;14.10;7.68;;;-0.10;83.40;;;;;;2064199;28;20507;-67
2020/12/27 05:29:04;;;;;;;22.25;12.90;;;-0.10;83.50;;;;;;2064747;28;20861;-67
2020/12/27 05:30:17;;;;;;;17.17;8.88;;;-0.10;83.60;;;;;;2050262;28;20074;-67
2020/12/27 05:31:51;;;;;;;15.88;8.60;;;-0.10;83.40;;;;;;2042639;29;20071;-67
2020/12/27 05:33:14;;;;;;;13.70;8.15;;;-0.10;82.90;;;;;;2064458;28;20496;-67
2020/12/27 05:34:38;;;;;;;13.73;8.15;;;0.00;82.80;;;;;;2065121;28;20062;-67
2020/12/27 05:36:03;;;;;;;14.07;8.93;;;0.00;82.50;;;;;;2065396;28;20200;-67
2020/12/27 05:37:16;;;;;;;13.13;8.00;;;0.00;82.60;;;;;;2064509;28;20574;-67
2020/12/27 05:38:37;;;;;;;13.95;8.70;;;0.00;82.60;;;;;;2064847;28;20039;-67
2020/12/27 05:40:07;;;;;;;13.95;8.50;;;-0.10;82.60;;;;;;2065314;28;20038;-67
2020/12/27 05:41:31;;;;;;;14.73;8.35;;;-0.10;82.80;;;;;;2064664;28;20144;-67
2020/12/27 05:42:45;;;;;;;13.50;7.85;;;-0.10;82.80;;;;;;2058256;28;20101;-67
2020/12/27 05:43:45;;;;;;;13.85;8.07;;;-0.10;82.80;;;;;;2056635;28;20418;-67
2020/12/27 05:44:46;;;;;;;12.85;7.50;;;-0.10;82.70;;;;;;2064543;28;20072;-67